Time;durP1;ratioP1;P1;durP2;ratioP2;P2;SDS_P1;SDS_P2;PMS_P1;PMS_P2;Temp;Humidity;BMP_temperature;BMP_pressure;BME280_temperature;BME280_humidity;BME280_pressure;Samples;Min_cycle;Max_cycle;Signal;HPM_P1;HPM_P2
2022/12/22 03:26:08;;;;;;;4.68;3.25;;;6.90;65.60;;;;;;5067374;28;20083;-81
2022/12/22 03:28:53;;;;;;;3.70;3.40;;;6.90;65.60;;;;;;5060834;28;20124;-82
2022/12/22 03:31:38;;;;;;;3.83;3.22;;;6.80;65.50;;;;;;5063982;28;20051;-82
2022/12/22 03:34:24;;;;;;;4.43;3.28;;;6.80;65.50;;;;;;5062274;28;20039;-81
2022/12/22 03:37:08;;;;;;;3.72;3.03;;;6.80;65.60;;;;;;5067781;28;20024;-81
2022/12/22 03:39:53;;;;;;;4.07;2.78;;;6.70;65.40;;;;;;5048772;28;20039;-80
2022/12/22 03:49:08;;;;;;;3.55;3.05;;;6.60;65.40;;;;;;5051655;28;20071;-79
2022/12/22 03:51:53;;;;;;;3.40;3.00;;;6.60;65.40;;;;;;5031367;28;20056;-80
2022/12/22 03:54:37;;;;;;;3.25;2.95;;;6.60;65.40;;;;;;5036044;28;20761;-81
2022/12/22 03:57:22;;;;;;;5.90;3.83;;;6.50;65.30;;;;;;5043071;28;20044;-80
2022/12/22 04:00:07;;;;;;;4.10;3.28;;;6.50;65.40;;;;;;5042676;28;20144;-80
2022/12/22 04:02:57;;;;;;;4.65;3.42;;;6.50;65.40;;;;;;5038624;28;20471;-79
2022/12/22 04:05:42;;;;;;;3.78;3.47;;;6.40;65.20;;;;;;5050857;28;20047;-80
2022/12/22 04:08:27;;;;;;;3.83;3.30;;;6.40;65.20;;;;;;5049551;28;20040;-80
2022/12/22 04:14:15;;;;;;;5.18;3.97;;;6.40;65.30;;;;;;5048215;28;20117;-80
2022/12/22 04:17:02;;;;;;;3.45;3.15;;;6.30;65.20;;;;;;5050592;28;20040;-80
2022/12/22 04:19:46;;;;;;;4.00;3.00;;;6.30;65.20;;;;;;5042598;28;20102;-80
2022/12/22 04:22:31;;;;;;;3.63;3.33;;;6.30;65.30;;;;;;5041443;28;20687;-81
2022/12/22 04:25:15;;;;;;;4.15;3.55;;;6.20;65.10;;;;;;5047654;28;20039;-81
2022/12/22 04:28:00;;;;;;;5.72;3.65;;;6.20;65.10;;;;;;5050460;28;20040;-81
2022/12/22 04:30:44;;;;;;;6.65;4.03;;;6.20;65.20;;;;;;5047418;28;20091;-81
2022/12/22 04:33:29;;;;;;;4.63;3.75;;;6.20;65.20;;;;;;5047228;28;20060;-81
2022/12/22 04:36:14;;;;;;;4.80;3.72;;;6.20;65.20;;;;;;5062260;28;20072;-81
2022/12/22 04:38:59;;;;;;;5.30;3.90;;;6.30;65.40;;;;;;5041436;28;20048;-81
2022/12/22 04:41:44;;;;;;;4.30;3.65;;;6.30;65.30;;;;;;5048634;28;20519;-81
2022/12/22 04:44:28;;;;;;;4.25;3.53;;;6.30;65.30;;;;;;5046345;28;20048;-81
2022/12/22 04:47:12;;;;;;;4.68;3.85;;;6.30;65.30;;;;;;5050637;28;20052;-82
2022/12/22 04:49:57;;;;;;;4.80;3.63;;;6.30;65.30;;;;;;5061844;28;20629;-81
2022/12/22 04:52:42;;;;;;;4.90;4.22;;;6.30;65.20;;;;;;5048947;28;20052;-81
2022/12/22 04:55:26;;;;;;;5.82;4.18;;;6.40;65.40;;;;;;5049976;28;20063;-81
2022/12/22 04:58:11;;;;;;;4.20;3.80;;;6.40;65.30;;;;;;5044087;28;20106;-81
2022/12/22 05:00:56;;;;;;;5.78;4.22;;;6.40;65.30;;;;;;5053979;28;20079;-80
2022/12/22 05:03:41;;;;;;;3.85;3.33;;;6.50;65.40;;;;;;5053750;28;20122;-82
2022/12/22 05:06:27;;;;;;;4.05;3.55;;;6.50;65.40;;;;;;5052427;28;20446;-83
2022/12/22 05:09:11;;;;;;;4.25;3.38;;;6.50;65.50;;;;;;5040585;28;20048;-82
2022/12/22 05:11:56;;;;;;;3.85;3.55;;;6.60;65.60;;;;;;5052582;28;20124;-82
2022/12/22 05:14:40;;;;;;;4.05;3.65;;;6.50;65.40;;;;;;5052729;28;20080;-83
2022/12/22 05:17:25;;;;;;;4.45;3.67;;;6.60;65.60;;;;;;5033510;28;20111;-80
2022/12/22 05:20:10;;;;;;;4.28;3.60;;;6.60;65.60;;;;;;5051833;28;20040;-81
2022/12/22 05:22:54;;;;;;;5.03;4.22;;;6.70;65.80;;;;;;5053485;28;20182;-82
2022/12/22 05:25:39;;;;;;;4.40;3.75;;;6.70;65.70;;;;;;5053317;28;20044;-82
2022/12/22 05:28:24;;;;;;;4.47;3.50;;;6.70;65.70;;;;;;5065949;28;20098;-79
2022/12/22 05:31:16;;;;;;;5.85;3.88;;;6.80;65.80;;;;;;5045811;28;20162;-81
2022/12/22 05:34:00;;;;;;;3.88;3.50;;;6.80;65.80;;;;;;5041240;28;20063;-79
2022/12/22 05:36:45;;;;;;;4.07;3.53;;;6.90;66.00;;;;;;5051914;28;20047;-83
2022/12/22 05:39:30;;;;;;;3.80;3.20;;;6.90;65.90;;;;;;5052891;28;20036;-85
2022/12/22 05:42:34;;;;;;;5.15;3.17;;;6.90;65.90;;;;;;5056083;28;20083;-89
2022/12/22 05:45:19;;;;;;;4.30;3.65;;;6.90;65.90;;;;;;5041760;28;20083;-90
2022/12/22 05:48:04;;;;;;;4.88;3.45;;;6.90;65.90;;;;;;5057273;28;20084;-93
2022/12/22 05:50:48;;;;;;;3.75;3.38;;;7.00;66.00;;;;;;5057184;28;20911;-92
2022/12/22 05:53:33;;;;;;;4.13;3.55;;;7.00;66.00;;;;;;5038128;28;20072;-90
2022/12/22 05:56:18;;;;;;;4.30;3.28;;;7.10;66.20;;;;;;5045193;28;20043;-87
2022/12/22 05:59:03;;;;;;;4.80;3.45;;;7.10;66.20;;;;;;5046914;28;20723;-86
2022/12/22 06:01:48;;;;;;;3.88;3.50;;;7.10;66.20;;;;;;5053145;28;20340;-85
2022/12/22 06:04:33;;;;;;;3.97;3.58;;;7.20;66.40;;;;;;5050025;28;20071;-89
2022/12/22 06:07:20;;;;;;;4.22;3.83;;;7.30;66.60;;;;;;5036367;28;20048;-86
2022/12/22 06:10:05;;;;;;;4.03;3.35;;;7.30;66.50;;;;;;5042048;28;20083;-80
2022/12/22 06:12:50;;;;;;;3.38;3.08;;;7.30;66.50;;;;;;5038172;28;20465;-85
2022/12/22 06:15:35;;;;;;;3.40;3.10;;;7.40;66.70;;;;;;5049503;28;20640;-84
2022/12/22 06:18:20;;;;;;;3.75;3.45;;;7.40;66.70;;;;;;5063445;28;20059;-85
2022/12/22 06:21:05;;;;;;;3.70;3.30;;;7.50;66.90;;;;;;5045998;28;20059;-84
2022/12/22 06:23:49;;;;;;;4.82;3.92;;;7.50;67.00;;;;;;5049728;28;20050;-85
2022/12/22 06:26:34;;;;;;;4.32;3.70;;;7.50;66.90;;;;;;5055590;28;20048;-89
2022/12/22 06:29:18;;;;;;;4.30;3.90;;;7.60;67.10;;;;;;5053692;28;20151;-85
2022/12/22 06:32:03;;;;;;;4.18;3.88;;;7.70;67.30;;;;;;5070633;28;20056;-93
2022/12/22 06:34:47;;;;;;;3.80;3.40;;;7.70;67.30;;;;;;5043424;28;20152;-89
2022/12/22 06:37:32;;;;;;;3.42;3.13;;;7.80;67.60;;;;;;5054568;28;20051;-88
2022/12/22 06:40:17;;;;;;;4.15;3.33;;;7.80;67.60;;;;;;5039078;28;20040;-93
2022/12/22 06:43:07;;;;;;;4.15;3.60;;;7.90;67.80;;;;;;5034636;28;20103;-90
2022/12/22 06:45:52;;;;;;;3.80;3.40;;;7.90;67.80;;;;;;5044459;28;20119;-83
2022/12/22 06:48:36;;;;;;;3.90;3.30;;;8.00;68.10;;;;;;5054363;28;20087;-90
2022/12/22 06:51:21;;;;;;;4.88;3.83;;;8.00;68.10;;;;;;5030090;28;20059;-82
2022/12/22 06:54:06;;;;;;;4.55;2.95;;;8.10;68.30;;;;;;5051235;28;20143;-87
2022/12/22 06:56:50;;;;;;;12.77;4.05;;;8.10;68.50;;;;;;5051389;28;20040;-83
2022/12/22 06:59:35;;;;;;;2.65;2.40;;;8.30;68.90;;;;;;5052837;28;20048;-81
2022/12/22 07:02:19;;;;;;;2.88;2.67;;;8.30;69.00;;;;;;5049779;28;20035;-93
2022/12/22 07:05:04;;;;;;;3.00;2.70;;;8.40;69.10;;;;;;5062877;28;20039;-79
2022/12/22 07:07:49;;;;;;;4.20;3.05;;;8.40;69.20;;;;;;5046844;28;20106;-78
2022/12/22 07:13:37;;;;;;;3.35;2.50;;;8.50;69.40;;;;;;5043046;28;20102;-88
2022/12/22 07:16:22;;;;;;;3.15;2.40;;;8.60;69.60;;;;;;5049868;28;20120;-90
2022/12/22 07:19:06;;;;;;;2.83;2.60;;;8.60;70.00;;;;;;5052969;28;20578;-87
2022/12/22 07:21:51;;;;;;;3.88;2.90;;;8.60;69.70;;;;;;5036418;28;20189;-88
2022/12/22 07:24:35;;;;;;;3.67;2.35;;;8.70;69.90;;;;;;5049908;28;20111;-89
2022/12/22 07:27:20;;;;;;;3.33;2.63;;;8.70;70.00;;;;;;5061512;28;20102;-92
2022/12/22 07:30:05;;;;;;;2.70;2.50;;;8.70;70.00;;;;;;5046330;28;20119;-87
2022/12/22 07:32:50;;;;;;;3.35;2.72;;;8.80;70.20;;;;;;5043396;28;20072;-85
2022/12/22 07:35:34;;;;;;;3.08;2.78;;;8.80;70.30;;;;;;5046005;28;20043;-90
2022/12/22 07:38:19;;;;;;;2.60;2.40;;;8.80;70.30;;;;;;5050523;28;20415;-86
2022/12/22 07:42:43;;;;;;;4.30;2.30;;;8.80;70.30;;;;;;5044051;28;20055;-86
2022/12/22 07:44:12;;;;;;;4.43;2.10;;;8.90;70.50;;;;;;5044748;28;20488;-88
2022/12/22 07:46:57;;;;;;;3.67;2.72;;;8.90;70.60;;;;;;5057918;28;20054;-87
2022/12/22 07:52:45;;;;;;;2.15;1.88;;;8.90;70.70;;;;;;5047993;28;20525;-84
2022/12/22 07:55:35;;;;;;;3.00;2.63;;;8.90;70.70;;;;;;5033554;28;20081;-83
2022/12/22 07:58:20;;;;;;;2.53;2.08;;;8.90;70.80;;;;;;5045882;28;20183;-79
2022/12/22 08:01:04;;;;;;;2.72;2.20;;;9.00;71.00;;;;;;5050958;28;20516;-79
2022/12/22 08:03:49;;;;;;;2.50;2.30;;;9.00;71.00;;;;;;5032639;28;20091;-88
2022/12/22 08:06:34;;;;;;;2.63;2.20;;;9.00;71.00;;;;;;5044950;28;20443;-81
2022/12/22 08:09:20;;;;;;;2.60;2.20;;;9.00;71.10;;;;;;5034278;28;20045;-89
2022/12/22 08:12:05;;;;;;;3.28;2.25;;;9.10;71.80;;;;;;5038010;28;20091;-87
2022/12/22 08:14:50;;;;;;;4.55;2.40;;;9.10;71.40;;;;;;5042037;28;20510;-83
2022/12/22 08:17:35;;;;;;;4.47;2.35;;;9.10;71.40;;;;;;5048402;28;20091;-81
2022/12/22 08:20:19;;;;;;;3.28;2.00;;;9.20;71.60;;;;;;5039892;28;20083;-80
2022/12/22 08:23:04;;;;;;;3.53;1.83;;;9.30;71.80;;;;;;5043126;28;20063;-80
2022/12/22 08:25:56;;;;;;;4.07;1.90;;;9.30;71.80;;;;;;5049926;28;20417;-81
2022/12/22 08:28:47;;;;;;;4.00;2.20;;;9.40;72.00;;;;;;5040583;28;20609;-87
2022/12/22 08:31:32;;;;;;;4.32;2.25;;;9.40;72.00;;;;;;5039705;28;20076;-83
2022/12/22 08:34:16;;;;;;;4.60;2.50;;;9.50;72.20;;;;;;5037037;28;20106;-80
2022/12/22 08:37:04;;;;;;;6.10;2.15;;;9.50;72.20;;;;;;5045520;28;20696;-81
2022/12/22 08:39:55;;;;;;;5.22;1.70;;;9.60;72.50;;;;;;5045543;28;20122;-83
2022/12/22 08:42:40;;;;;;;5.60;1.95;;;9.70;72.70;;;;;;5041318;28;20387;-79
2022/12/22 08:45:24;;;;;;;15.05;3.22;;;9.80;72.90;;;;;;5063225;28;20104;-77
2022/12/22 08:48:09;;;;;;;2.92;1.45;;;9.90;73.00;;;;;;5047024;28;20118;-83
2022/12/22 08:50:54;;;;;;;4.95;1.73;;;10.00;73.30;;;;;;5052434;28;20110;-83
2022/12/22 08:53:38;;;;;;;4.18;1.58;;;10.00;73.30;;;;;;5057659;28;20047;-84
2022/12/22 08:56:24;;;;;;;3.13;1.40;;;10.20;73.70;;;;;;5053170;28;20044;-86
2022/12/22 08:59:09;;;;;;;3.90;1.40;;;10.20;73.80;;;;;;5059083;28;20047;-86
2022/12/22 09:01:54;;;;;;;2.45;1.30;;;10.30;73.90;;;;;;5069083;28;20051;-81
2022/12/22 09:04:39;;;;;;;4.30;1.23;;;10.40;74.20;;;;;;5059294;28;20036;-81
2022/12/22 09:07:24;;;;;;;2.45;0.90;;;10.50;74.30;;;;;;5054970;28;20087;-82
2022/12/22 09:10:09;;;;;;;2.75;1.50;;;10.50;74.30;;;;;;5061474;28;20036;-83
2022/12/22 09:12:54;;;;;;;5.35;1.67;;;10.60;74.50;;;;;;5051343;28;20498;-82
2022/12/22 09:15:40;;;;;;;2.55;0.95;;;10.70;74.70;;;;;;5062034;28;20036;-84
2022/12/22 09:18:25;;;;;;;6.00;1.33;;;10.80;74.90;;;;;;5047765;28;20475;-89
2022/12/22 09:21:10;;;;;;;4.80;1.33;;;10.80;75.40;;;;;;5062087;28;20072;-83
2022/12/22 09:23:55;;;;;;;4.97;1.40;;;10.90;75.00;;;;;;5036823;28;20087;-83
2022/12/22 09:26:40;;;;;;;3.88;1.50;;;10.90;75.00;;;;;;5060609;28;20146;-87
2022/12/22 09:29:25;;;;;;;3.28;1.40;;;11.00;75.10;;;;;;5052325;28;20064;-86
2022/12/22 09:32:09;;;;;;;5.30;1.58;;;11.10;75.30;;;;;;5055993;28;20114;-85
2022/12/22 09:34:55;;;;;;;3.17;1.23;;;11.20;75.40;;;;;;5029119;28;20128;-81
2022/12/22 09:37:40;;;;;;;2.38;1.42;;;11.20;75.50;;;;;;5036589;28;20060;-82
2022/12/22 09:40:25;;;;;;;5.20;1.13;;;11.40;76.00;;;;;;5033088;28;20498;-80
2022/12/22 09:43:18;;;;;;;4.20;2.03;;;11.60;76.20;;;;;;5046526;28;20363;-86
2022/12/22 09:46:02;;;;;;;2.63;0.80;;;11.90;76.50;;;;;;5028560;28;20099;-77
2022/12/22 09:48:47;;;;;;;4.72;0.98;;;12.20;76.40;;;;;;5046008;28;20656;-77
2022/12/22 09:51:39;;;;;;;2.50;1.05;;;12.50;76.40;;;;;;5047333;28;20531;-76
2022/12/22 09:54:24;;;;;;;6.53;1.23;;;12.70;76.20;;;;;;5039841;28;20441;-77
2022/12/22 09:57:12;;;;;;;3.20;1.17;;;12.80;76.00;;;;;;5046662;28;20039;-77
2022/12/22 10:00:14;;;;;;;6.13;2.25;;;13.00;76.20;;;;;;5048098;28;20187;-81
2022/12/22 10:03:17;;;;;;;2.63;1.15;;;13.10;76.30;;;;;;5057187;28;20086;-79
2022/12/22 10:06:27;;;;;;;3.25;1.20;;;13.20;76.40;;;;;;5055497;28;20045;-77
2022/12/22 10:09:28;;;;;;;4.97;0.88;;;13.30;76.40;;;;;;5036032;28;20036;-78
2022/12/22 10:12:21;;;;;;;5.00;1.25;;;13.40;76.30;;;;;;5044901;28;20118;-78
2022/12/22 10:15:09;;;;;;;4.80;1.63;;;13.40;76.20;;;;;;5039012;28;20102;-79
2022/12/22 10:18:11;;;;;;;3.13;1.08;;;13.50;76.30;;;;;;5030962;28;20043;-79
2022/12/22 10:21:11;;;;;;;4.35;1.08;;;13.50;76.20;;;;;;5043239;28;20083;-78
2022/12/22 10:23:56;;;;;;;3.47;1.00;;;13.40;76.10;;;;;;5044950;28;20435;-78
2022/12/22 10:26:41;;;;;;;6.25;2.10;;;13.40;76.10;;;;;;5044809;28;20617;-78
2022/12/22 10:29:27;;;;;;;3.70;1.30;;;13.40;76.20;;;;;;5057965;28;20550;-78
2022/12/22 10:32:19;;;;;;;5.93;1.15;;;13.30;76.10;;;;;;5040831;28;20049;-78
2022/12/22 10:35:05;;;;;;;4.20;1.23;;;13.30;76.20;;;;;;5036541;28;20091;-79
2022/12/22 10:37:50;;;;;;;3.38;1.33;;;13.30;76.20;;;;;;5037718;28;20043;-78
2022/12/22 10:40:42;;;;;;;5.35;1.60;;;13.20;76.10;;;;;;5029819;28;20481;-78
2022/12/22 10:43:32;;;;;;;4.63;1.17;;;13.20;76.10;;;;;;5037295;28;20043;-78
2022/12/22 10:46:19;;;;;;;2.35;2.10;;;13.20;76.10;;;;;;5038660;28;20059;-77
2022/12/22 10:49:24;;;;;;;4.63;1.30;;;13.20;76.10;;;;;;5038756;28;20091;-78
2022/12/22 10:52:25;;;;;;;6.35;2.08;;;13.20;76.10;;;;;;5037630;28;20064;-78
2022/12/22 10:55:27;;;;;;;6.30;1.50;;;13.20;76.10;;;;;;5048987;28;20045;-79
2022/12/22 10:58:20;;;;;;;8.27;1.30;;;13.10;76.40;;;;;;5041761;28;20055;-79
2022/12/22 11:01:05;;;;;;;4.13;1.50;;;13.20;76.00;;;;;;5049635;28;20111;-79
2022/12/22 11:03:50;;;;;;;3.35;1.08;;;13.20;75.90;;;;;;5052492;28;20035;-78
2022/12/22 11:06:35;;;;;;;5.10;2.03;;;13.20;75.90;;;;;;5059583;28;20108;-78
2022/12/22 11:09:20;;;;;;;2.47;1.02;;;13.20;75.80;;;;;;5062915;28;20019;-78
2022/12/22 11:12:11;;;;;;;5.57;1.42;;;13.20;75.70;;;;;;5047463;28;20080;-79
2022/12/22 11:14:58;;;;;;;4.00;1.20;;;13.20;75.60;;;;;;5026438;28;20455;-79
2022/12/22 11:18:07;;;;;;;4.30;0.75;;;13.30;75.80;;;;;;5032897;28;20156;-78
2022/12/22 11:21:01;;;;;;;3.55;1.25;;;13.30;75.70;;;;;;5058171;28;20047;-78
2022/12/22 11:24:20;;;;;;;3.67;1.00;;;13.30;75.70;;;;;;5038768;28;20471;-78
2022/12/22 11:27:22;;;;;;;4.90;1.40;;;13.30;75.50;;;;;;5051244;28;20491;-78
2022/12/22 11:30:06;;;;;;;5.22;1.35;;;13.40;75.70;;;;;;5033119;28;20048;-78
2022/12/22 11:33:05;;;;;;;2.13;0.82;;;13.40;75.60;;;;;;5051275;28;20057;-79
2022/12/22 11:36:22;;;;;;;4.13;1.50;;;13.40;75.50;;;;;;5035195;28;20052;-77
2022/12/22 11:39:15;;;;;;;3.78;1.45;;;13.40;75.40;;;;;;5019408;28;20048;-79
2022/12/22 11:42:21;;;;;;;5.18;1.50;;;13.50;75.50;;;;;;5026515;28;20410;-81
2022/12/22 11:45:18;;;;;;;4.00;1.23;;;13.50;75.50;;;;;;5025998;28;20048;-79
2022/12/22 11:48:40;;;;;;;5.13;1.48;;;13.50;75.50;;;;;;5038941;28;20547;-79
2022/12/22 11:51:41;;;;;;;4.53;1.50;;;13.40;75.30;;;;;;5026156;28;20068;-79
2022/12/22 11:54:56;;;;;;;10.30;2.78;;;13.50;75.70;;;;;;5036918;28;20078;-85
2022/12/22 11:57:57;;;;;;;7.82;1.27;;;13.70;76.10;;;;;;5032423;28;20045;-81
2022/12/22 12:01:05;;;;;;;4.75;1.17;;;13.90;76.20;;;;;;5028704;28;20040;-80
2022/12/22 12:04:14;;;;;;;4.55;1.23;;;14.10;76.20;;;;;;5035930;28;20047;-82
2022/12/22 12:06:58;;;;;;;5.32;2.03;;;14.20;76.00;;;;;;5027347;28;20056;-78
2022/12/22 12:10:05;;;;;;;3.45;2.65;;;14.30;75.90;;;;;;5045061;28;20124;-79
2022/12/22 12:13:11;;;;;;;2.28;2.00;;;14.40;75.90;;;;;;5034774;28;20059;-77
2022/12/22 12:16:02;;;;;;;6.03;3.10;;;14.50;75.90;;;;;;5029379;28;20037;-76
2022/12/22 12:18:54;;;;;;;5.97;2.88;;;14.50;75.90;;;;;;5037519;28;20490;-79
2022/12/22 12:21:40;;;;;;;4.97;2.30;;;14.60;75.90;;;;;;5037667;28;20040;-78
2022/12/22 12:24:28;;;;;;;3.92;2.40;;;14.70;76.00;;;;;;5037056;28;20095;-81
2022/12/22 12:27:40;;;;;;;6.70;4.40;;;14.80;76.10;;;;;;5026811;28;20083;-81
2022/12/22 12:30:30;;;;;;;8.57;3.97;;;14.90;76.30;;;;;;5043418;28;20036;-80
2022/12/22 12:33:26;;;;;;;21.25;6.20;;;15.00;76.50;;;;;;5034759;28;20048;-79
2022/12/22 12:36:17;;;;;;;10.50;7.05;;;15.00;76.90;;;;;;5030895;28;20090;-79
2022/12/22 12:39:20;;;;;;;21.30;13.77;;;15.10;77.60;;;;;;5033426;28;20090;-79
2022/12/22 12:42:08;;;;;;;;;;;15.30;78.80;;;;;;5057649;28;20458;-80
2022/12/22 12:44:53;;;;;;;18.55;15.02;;;15.40;78.70;;;;;;5030989;28;19939;-80
2022/12/22 12:47:39;;;;;;;18.08;12.00;;;15.50;78.60;;;;;;5052169;28;20064;-86
2022/12/22 12:50:33;;;;;;;15.75;10.88;;;15.60;79.30;;;;;;5048014;28;20067;-89
2022/12/22 12:53:25;;;;;;;15.30;9.32;;;15.70;80.20;;;;;;5061011;28;20105;-89
2022/12/22 12:56:09;;;;;;;15.20;9.45;;;15.80;80.50;;;;;;5038138;28;20064;-77
2022/12/22 12:58:56;;;;;;;11.65;9.15;;;15.80;80.60;;;;;;5049384;28;20523;-84
2022/12/22 13:01:41;;;;;;;13.20;7.97;;;15.90;80.80;;;;;;5052318;28;20117;-86
2022/12/22 13:05:00;;;;;;;11.02;6.55;;;16.00;81.00;;;;;;5046660;28;20116;-87
2022/12/22 13:08:05;;;;;;;12.38;6.90;;;16.00;81.00;;;;;;5040967;28;20125;-85
2022/12/22 13:10:52;;;;;;;;;;;16.00;80.90;;;;;;5058823;28;20043;-85
2022/12/22 13:13:38;;;;;;;9.70;5.65;;;16.00;80.60;;;;;;5054339;28;19918;-94
2022/12/22 13:16:25;;;;;;;9.48;5.57;;;16.10;80.60;;;;;;5062895;28;20096;-83
2022/12/22 13:19:21;;;;;;;10.75;5.57;;;16.10;80.60;;;;;;5053983;28;20040;-88
2022/12/22 13:22:07;;;;;;;8.85;4.95;;;16.10;80.50;;;;;;5046311;28;20155;-92
2022/12/22 13:24:52;;;;;;;8.02;5.22;;;16.10;80.40;;;;;;5060910;28;20040;-92
2022/12/22 13:27:37;;;;;;;12.57;5.30;;;16.10;80.30;;;;;;5053339;28;20044;-90
2022/12/22 13:30:22;;;;;;;7.75;5.07;;;16.10;80.10;;;;;;5053489;28;20060;-86
2022/12/22 13:33:11;;;;;;;7.68;4.40;;;16.10;80.00;;;;;;5043626;28;20113;-90
2022/12/22 13:35:59;;;;;;;7.75;4.22;;;16.10;79.90;;;;;;5043066;28;20095;-94
2022/12/22 13:38:44;;;;;;;8.52;4.13;;;16.00;79.70;;;;;;5054172;28;20105;-84
2022/12/22 13:41:29;;;;;;;9.23;5.20;;;16.00;79.60;;;;;;5047478;28;20613;-83
2022/12/22 13:44:28;;;;;;;5.53;3.88;;;16.00;79.60;;;;;;5057893;28;20289;-81
2022/12/22 13:47:14;;;;;;;5.63;3.28;;;16.00;79.40;;;;;;5049549;28;20044;-81
2022/12/22 13:49:58;;;;;;;7.75;3.83;;;16.00;79.30;;;;;;5050601;28;20429;-82
2022/12/22 13:52:43;;;;;;;5.45;3.03;;;16.00;79.20;;;;;;5061698;28;20059;-81
2022/12/22 13:55:31;;;;;;;6.13;3.30;;;16.00;79.00;;;;;;5033480;28;20037;-80
2022/12/22 13:58:29;;;;;;;6.60;3.50;;;16.00;78.90;;;;;;5056068;28;20099;-80
2022/12/22 14:01:17;;;;;;;5.18;2.65;;;16.00;78.60;;;;;;5050162;28;20515;-79
2022/12/22 14:04:06;;;;;;;6.38;2.75;;;16.00;78.50;;;;;;5042086;28;20043;-78
2022/12/22 14:06:53;;;;;;;4.82;2.25;;;16.00;78.30;;;;;;5043178;28;20098;-79
2022/12/22 14:09:43;;;;;;;7.00;2.85;;;16.10;78.30;;;;;;5052880;28;20039;-79
2022/12/22 14:12:41;;;;;;;4.82;2.58;;;16.10;78.10;;;;;;5059318;28;20090;-78
2022/12/22 14:15:25;;;;;;;4.05;2.30;;;16.00;77.80;;;;;;5037787;28;20098;-85
2022/12/22 14:18:24;;;;;;;2.92;1.90;;;16.00;77.80;;;;;;5052835;28;20044;-82
2022/12/22 14:21:09;;;;;;;6.50;2.20;;;15.90;77.50;;;;;;5054394;28;20044;-82
2022/12/22 14:23:53;;;;;;;4.07;2.13;;;15.90;77.50;;;;;;5041013;28;20040;-84
2022/12/22 14:26:39;;;;;;;7.90;1.95;;;15.90;77.50;;;;;;5045109;28;20043;-83
2022/12/22 14:29:27;;;;;;;3.92;1.95;;;15.90;77.40;;;;;;5048516;28;20072;-81
2022/12/22 14:32:51;;;;;;;5.85;1.88;;;15.90;77.40;;;;;;5062977;28;20050;-81
2022/12/22 14:35:36;;;;;;;3.38;1.75;;;15.80;77.10;;;;;;5045520;28;20045;-80
2022/12/22 14:38:25;;;;;;;4.45;1.90;;;15.80;77.20;;;;;;5041013;28;20055;-84
2022/12/22 14:44:22;;;;;;;4.88;1.23;;;15.80;77.10;;;;;;5045129;28;20511;-80
2022/12/22 14:47:19;;;;;;;3.35;1.70;;;15.80;77.10;;;;;;5017524;28;20040;-81
2022/12/22 14:50:21;;;;;;;4.10;1.63;;;15.80;77.10;;;;;;5038541;28;20096;-79
2022/12/22 14:53:05;;;;;;;4.95;1.80;;;15.80;77.00;;;;;;5025530;28;20064;-80
2022/12/22 14:55:51;;;;;;;5.03;2.08;;;15.80;76.90;;;;;;5033301;28;20389;-78
2022/12/22 14:58:39;;;;;;;3.67;1.58;;;15.90;77.00;;;;;;5037636;28;20153;-77
2022/12/22 15:01:28;;;;;;;6.90;1.80;;;15.90;76.90;;;;;;5030905;28;20036;-76
2022/12/22 15:04:18;;;;;;;6.78;1.65;;;16.00;77.00;;;;;;5025836;28;20043;-76
2022/12/22 15:07:18;;;;;;;5.85;3.00;;;16.00;76.90;;;;;;5036561;28;20414;-76
2022/12/22 15:10:02;;;;;;;7.40;2.38;;;16.00;76.80;;;;;;5042103;28;20083;-75
2022/12/22 15:12:49;;;;;;;4.28;1.75;;;15.90;76.50;;;;;;5028767;28;20137;-74
2022/12/22 15:15:34;;;;;;;6.93;2.30;;;15.90;76.50;;;;;;5009604;28;20106;-75
2022/12/22 15:18:24;;;;;;;7.43;1.80;;;15.90;77.00;;;;;;5032860;28;20048;-75
2022/12/22 15:21:12;;;;;;;5.60;1.40;;;15.90;76.50;;;;;;5027669;28;20816;-75
2022/12/22 15:23:56;;;;;;;8.68;1.90;;;15.80;76.30;;;;;;5051193;28;20153;-75
2022/12/22 15:26:42;;;;;;;7.55;1.92;;;15.80;76.40;;;;;;5026890;28;20449;-75
2022/12/22 15:29:26;;;;;;;5.88;1.70;;;15.70;76.20;;;;;;5037015;28;20082;-76
2022/12/22 15:32:12;;;;;;;5.18;2.15;;;15.70;76.20;;;;;;5032105;28;20060;-77
2022/12/22 15:34:56;;;;;;;7.43;1.58;;;15.60;76.10;;;;;;5026957;28;20504;-82
2022/12/22 15:37:41;;;;;;;9.13;2.55;;;15.60;76.10;;;;;;5027256;28;20084;-80
2022/12/22 15:40:27;;;;;;;3.80;1.60;;;15.50;76.00;;;;;;5028314;28;20094;-82
2022/12/22 15:43:13;;;;;;;6.85;2.60;;;15.50;76.10;;;;;;5042115;28;20511;-81
2022/12/22 15:45:58;;;;;;;8.13;1.92;;;15.50;76.10;;;;;;5027990;28;20499;-80
2022/12/22 15:48:44;;;;;;;8.38;2.58;;;15.40;76.00;;;;;;5028868;28;20204;-77
2022/12/22 15:51:30;;;;;;;7.55;1.70;;;15.40;76.00;;;;;;5052931;28;20075;-78
2022/12/22 15:54:17;;;;;;;7.70;2.13;;;15.30;75.90;;;;;;5044407;28;20055;-76
2022/12/22 15:57:01;;;;;;;4.75;1.38;;;15.30;76.00;;;;;;5031170;28;20511;-77
2022/12/22 15:59:46;;;;;;;5.25;1.65;;;15.20;75.90;;;;;;5034109;28;20032;-76
2022/12/22 16:02:31;;;;;;;7.75;2.25;;;15.20;76.00;;;;;;5024002;28;20755;-82
2022/12/22 16:05:16;;;;;;;7.55;2.50;;;15.20;76.10;;;;;;5040203;28;20455;-82
2022/12/22 16:08:02;;;;;;;4.55;1.40;;;15.10;76.00;;;;;;5040300;28;20464;-84
2022/12/22 16:10:48;;;;;;;6.65;1.65;;;15.10;76.10;;;;;;5050566;28;20166;-88
2022/12/22 16:13:34;;;;;;;4.40;1.52;;;15.10;76.20;;;;;;5040705;28;20044;-88
2022/12/22 16:16:19;;;;;;;5.20;1.60;;;15.00;76.00;;;;;;5046036;28;20060;-88
2022/12/22 16:19:04;;;;;;;6.18;1.80;;;15.00;76.00;;;;;;5044348;28;20044;-87
2022/12/22 16:21:51;;;;;;;5.82;2.28;;;14.90;75.80;;;;;;5038666;28;20560;-85
2022/12/22 16:24:37;;;;;;;5.10;2.30;;;14.80;75.80;;;;;;5052397;28;20043;-85
2022/12/22 16:27:21;;;;;;;3.13;1.30;;;14.70;75.70;;;;;;5065251;28;20542;-85
2022/12/22 16:30:12;;;;;;;5.43;1.63;;;14.70;75.90;;;;;;5047508;28;20044;-82
2022/12/22 16:32:57;;;;;;;3.97;1.23;;;14.60;75.90;;;;;;5039209;28;20048;-81
2022/12/22 16:35:42;;;;;;;2.10;1.13;;;14.50;75.80;;;;;;5047156;28;20043;-82
2022/12/22 16:38:26;;;;;;;3.42;1.50;;;14.40;75.70;;;;;;5060774;28;20043;-84
2022/12/22 16:41:20;;;;;;;4.32;1.90;;;14.40;75.80;;;;;;5047589;28;20079;-95
2022/12/22 16:44:08;;;;;;;5.13;1.55;;;14.30;75.80;;;;;;5058333;28;20165;-90
2022/12/22 16:46:54;;;;;;;3.08;1.60;;;14.20;75.70;;;;;;5048690;28;20090;-92
2022/12/22 16:49:38;;;;;;;4.53;1.70;;;14.20;75.80;;;;;;5055886;28;20091;-82
2022/12/22 16:52:37;;;;;;;6.15;1.50;;;14.10;75.70;;;;;;5048451;28;20371;-81
2022/12/22 16:55:21;;;;;;;5.00;2.65;;;14.00;75.60;;;;;;5056628;28;20051;-84
2022/12/22 16:58:08;;;;;;;3.75;1.58;;;14.00;75.70;;;;;;5044942;28;20118;-84
2022/12/22 17:00:52;;;;;;;3.08;1.67;;;13.90;75.60;;;;;;5071308;28;20048;-77
2022/12/22 17:03:40;;;;;;;4.25;1.60;;;13.90;75.70;;;;;;5063732;28;20512;-77
2022/12/22 17:06:25;;;;;;;3.67;1.20;;;13.80;75.70;;;;;;5048076;28;20032;-78
2022/12/22 17:09:14;;;;;;;3.55;1.40;;;13.80;75.70;;;;;;5057716;28;20457;-81
2022/12/22 17:12:00;;;;;;;4.55;1.40;;;13.70;75.70;;;;;;5037392;28;20523;-91
2022/12/22 17:14:46;;;;;;;3.65;1.35;;;13.70;75.80;;;;;;5049664;28;20048;-84
2022/12/22 17:17:31;;;;;;;4.53;1.42;;;13.70;75.80;;;;;;5048569;28;20102;-84
2022/12/22 17:20:18;;;;;;;4.18;1.60;;;13.60;75.70;;;;;;5063414;28;20078;-86
2022/12/22 17:23:03;;;;;;;3.65;1.63;;;13.60;75.80;;;;;;5052000;28;20031;-86
2022/12/22 17:25:47;;;;;;;3.08;1.98;;;13.60;75.90;;;;;;5053658;28;20048;-86
2022/12/22 17:28:33;;;;;;;2.85;1.90;;;13.50;75.80;;;;;;5052203;28;20039;-85
2022/12/22 17:31:20;;;;;;;4.63;1.70;;;13.50;75.80;;;;;;5062124;28;20052;-85
2022/12/22 17:34:15;;;;;;;4.63;1.35;;;13.50;75.90;;;;;;5033388;28;20048;-87
2022/12/22 17:36:59;;;;;;;6.13;2.63;;;13.40;75.80;;;;;;5031334;28;20041;-92
2022/12/22 17:39:46;;;;;;;3.72;1.95;;;13.40;75.80;;;;;;5033347;28;20067;-86
2022/12/22 17:42:31;;;;;;;5.30;1.83;;;13.40;75.90;;;;;;5030461;28;20091;-84
2022/12/22 17:45:16;;;;;;;4.57;1.58;;;13.40;75.90;;;;;;5029934;28;20574;-88
2022/12/22 17:48:01;;;;;;;3.97;2.10;;;13.30;75.80;;;;;;5018783;28;20087;-84
2022/12/22 17:50:48;;;;;;;4.93;2.15;;;13.20;75.70;;;;;;5038838;28;20091;-84
2022/12/22 17:53:32;;;;;;;6.20;2.10;;;13.30;75.90;;;;;;5023859;28;20047;-87
2022/12/22 17:56:20;;;;;;;2.95;2.05;;;13.30;76.00;;;;;;5051293;28;20052;-88
2022/12/22 17:59:05;;;;;;;4.03;1.90;;;13.20;76.00;;;;;;5038729;28;20133;-85
2022/12/22 18:01:49;;;;;;;5.32;2.30;;;13.20;76.00;;;;;;5053459;28;20055;-86
2022/12/22 18:04:34;;;;;;;2.97;2.20;;;13.10;75.80;;;;;;5048352;28;20409;-88
2022/12/22 18:07:21;;;;;;;5.28;2.70;;;13.10;75.90;;;;;;5039699;28;20111;-89
2022/12/22 18:10:12;;;;;;;4.22;1.98;;;13.10;76.00;;;;;;5058311;28;20057;-89
2022/12/22 18:12:58;;;;;;;3.65;1.98;;;13.10;76.00;;;;;;5043111;28;20091;-80
2022/12/22 18:15:44;;;;;;;4.80;1.95;;;13.00;75.90;;;;;;5023999;28;20044;-82
2022/12/22 18:18:29;;;;;;;4.43;1.92;;;13.00;76.10;;;;;;5043540;28;20138;-88
2022/12/22 18:21:21;;;;;;;4.72;1.48;;;13.10;76.60;;;;;;5051189;28;20089;-83
2022/12/22 18:24:08;;;;;;;3.95;1.85;;;13.10;77.00;;;;;;5050452;28;20539;-85